Relevés horaires Saint-Mandrier-sur-Mer - Cap Cépet (France)


Relevés horaires à Saint-Mandrier-sur-Mer - Cap Cépet - Lundi 03 Févr. 2020
Heure UTC1 Température [°C] Vent [km/h] Hum. [%] Pres.4 [hPa] Visi. [Km] Nébu. [octa] Préc.5 [mm] Cond.
2m. Res. Ros. Dir.2 Vit. Moy. Raf.3
23:00 16.1 14.9 8.8 NO 22.2 -- 27.8 62 1020.5(-0.1/3h) -- -- -- --
22:00 15.3 13.9 10.1 NO 22.2 -- 33.3 71 1020.8(0.6/3h) -- -- -- --
21:00 17.2 16.2 8.3 NO 24.1 -- 35.2 56 1020.6(0.9/3h) -- -- -- --
20:00 17.2 16.4 8.1 NO 20.4 -- 29.6 55 1020.5(0.9/3h) -- -- -- --
19:00 17.5 16.7 8.1 NO 22.2 -- 33.3 54 1020.1(0.6/3h) -- -- -- --
18:00 17.7 16.8 8.5 NO 25.9 -- 35.2 55 1019.7(0.1/3h) -- -- -- --
17:00 16.9 15.8 9.6 NO 25.9 -- 37.0 62 1019.6(-0.1/3h) -- -- -- --
16:00 17.5 16.5 9.1 NO 25.9 -- 40.7 58 1019.5(-0.3/3h) -- -- -- --
15:00 18.3 17.6 8.8 NO 25.9 -- 38.9 54 1019.6(-1.1/3h) 25 1/8 -- --
14:00 18.6 17.9 8.8 NO 27.8 -- 40.7 53 1019.6(-1.8/3h) -- -- -- --
13:00 18.2 17.4 9.3 NO 25.9 -- 38.9 56 1019.8(-2.3/3h) -- -- -- --
12:00 18.2 17.4 9.0 NO 25.9 -- 38.9 55 1020.7(-1.2/3h) -- -- -- --
11:00 18.4 17.7 8.4 NO 25.9 -- 38.9 52 1021.5(-0.3/3h) -- -- -- --
10:00 17.7 16.8 8.5 NO 25.9 -- 37.0 55 1022.1(0.7/3h) -- -- -- --
09:00 16.7 15.6 9.1 NO 24.1 -- 37.0 61 1022(0.6/3h) 25 4/8 -- --
08:00 15.9 14.6 9.3 NO 24.1 -- 37.0 65 1021.9(0.2/3h) -- -- -- --
07:00 15.6 14.1 9.7 NO 25.9 -- 33.3 68 1021.5(-0.4/3h) -- -- -- --
06:00 16.0 14.7 9.9 NO 24.1 -- 31.5 67 1021.4(-1.2/3h) 20 2/8 -- --
05:00 17.0 16.1 9.9 NO 22.2 -- 35.2 63 1021.7(-0.9/3h) -- -- -- --
04:00 15.8 14.6 10.5 NO 22.2 -- 33.3 71 1021.9(-0.6/3h) -- -- -- --
03:00 14.9 13.4 11.5 NO 22.2 -- 33.3 80 1022.7(0.2/3h) 20 0/8 -- --
02:00 16.2 15.2 11.1 NO 20.4 -- 27.8 72 1022.6(0.3/3h) -- -- -- --
01:00 16.3 15.7 11.0 NO 14.8 -- 27.8 71 1022.5(0.1/3h) -- -- -- --
00:00 16.2 15.2 11.4 NO 20.4 -- 27.8 73 1022.4(-0.2/3h) -- -- -- --

1 Coordinated Universal Time. Actuellement il est 11:00 locale et 09:00 UTC.

2 Le vent souffle depuis la direction indiquée vers la direction oposée.

3 Les rafales max. sont disponible 40 min après l'heure du relevé.

4 Pour les stations d'altitude (plus de 600m) le géopotentiel du niveau le plus proche de la pression obligatoire est indiqué.

5 Les stations disposant d'un diffuseur peuvent indiquer "trace". Cela signifie que des précipitations ont touchés le sol mais que la quantité est inférieure à 0.1 mm.

Récapitulatif de la journée
Température [°C] Vent [km/h] Ensoleillement4 [h] Precipitations totale5 [mm] Pression [Hpa]
Min1 Max.2 Moy.3 Max. Min Max.
14.8 18.8 0 40.7 0 h 0 min 0 1019.5 1022.7

1 Température minimale relevée entre 18:00 UTC la veille et 18:00 UTC le jour donné.

2 Température maximale relevée entre 06:00 UTC le jour donné et 06:00 UTC le lendemain.

3 Vent moyen de la journée basé sur les relevés horaires.

4 Ensoleillement en heures relevé entre 06:00 UTC la veille et 06:00 UTC le jour donné.

5 Précipitations totales tombées entre 06:00 UTC la jour donné et 06:00 UTC le lendemain.

Graphiques horaires